Time;durP1;ratioP1;P1;durP2;ratioP2;P2;SDS_P1;SDS_P2;PMS_P1;PMS_P2;Temp;Humidity;BMP_temperature;BMP_pressure;BME280_temperature;BME280_humidity;BME280_pressure;Samples;Min_cycle;Max_cycle;Signal;HPM_P1;HPM_P2
2023/04/08 00:01:11;;;;;;;;;;;;;;;18.96;27.71;98274.84;5108529;27;20398;-85
2023/04/08 00:03:37;;;;;;;;;;;;;;;18.96;27.95;98269.28;5101776;27;20053;-85
2023/04/08 00:06:04;;;;;;;;;;;;;;;18.40;28.98;98276.25;5109336;28;19927;-85
2023/04/08 00:08:30;;;;;;;;;;;;;;;17.17;31.01;98279.00;5106476;28;20015;-85
2023/04/08 00:10:56;;;;;;;;;;;;;;;16.47;32.90;98283.78;5073536;28;19920;-85
2023/04/08 00:13:22;;;;;;;;;;;;;;;15.16;35.45;98290.16;5102214;27;20375;-85
2023/04/08 00:15:48;;;;;;;;;;;;;;;15.94;34.22;98279.53;5102051;27;20391;-85
2023/04/08 00:18:15;;;;;;;;;;;;;;;15.97;33.61;98287.88;5111630;28;20274;-85
2023/04/08 00:20:42;;;;;;;;;;;;;;;14.99;36.22;98292.59;5100696;28;19919;-85
2023/04/08 00:23:08;;;;;;;;;;;;;;;15.43;34.60;98296.53;5105598;27;21419;-85
2023/04/08 00:25:34;;;;;;;;;;;;;;;15.73;33.87;98283.56;5100359;27;19924;-85
2023/04/08 00:28:00;;;;;;;;;;;;;;;14.61;36.44;98287.19;5098620;27;19927;-85
2023/04/08 00:30:27;;;;;;;;;;;;;;;13.98;37.71;98290.19;5097592;28;19943;-85
2023/04/08 00:32:53;;;;;;;;;;;;;;;13.88;37.72;98289.97;5107560;27;20655;-85
2023/04/08 00:35:19;;;;;;;;;;;;;;;15.00;34.69;98285.94;5108373;28;19919;-86
2023/04/08 00:37:46;;;;;;;;;;;;;;;14.31;36.25;98286.97;5104729;28;20263;-86
2023/04/08 00:40:12;;;;;;;;;;;;;;;13.92;37.19;98285.31;5102293;28;19945;-85
2023/04/08 00:42:38;;;;;;;;;;;;;;;15.83;33.22;98295.97;5093625;28;20050;-85
2023/04/08 00:45:05;;;;;;;;;;;;;;;17.31;30.23;98286.66;5098461;27;20075;-85
2023/04/08 00:47:31;;;;;;;;;;;;;;;17.42;30.05;98286.72;5103813;27;19920;-85
2023/04/08 00:49:57;;;;;;;;;;;;;;;17.22;30.30;98294.50;5107694;28;19965;-85
2023/04/08 00:52:23;;;;;;;;;;;;;;;17.75;29.24;98298.53;5107432;28;20389;-85
2023/04/08 00:54:49;;;;;;;;;;;;;;;17.44;29.69;98299.03;5102324;27;20380;-84
2023/04/08 00:57:15;;;;;;;;;;;;;;;16.74;30.76;98303.91;5099537;28;19916;-85
2023/04/08 00:59:41;;;;;;;;;;;;;;;17.18;30.04;98313.88;5107269;28;20389;-85
2023/04/08 01:02:08;;;;;;;;;;;;;;;17.38;29.82;98306.13;5105673;27;19916;-85
2023/04/08 01:04:53;;;;;;;;;;;;;;;18.03;28.42;98314.56;5105794;28;19924;-85
2023/04/08 01:07:31;;;;;;;;;;;;;;;18.23;27.99;98310.31;5104944;28;19926;-85
2023/04/08 01:10:00;;;;;;;;;;;;;;;17.40;29.51;98312.09;5103668;28;19923;-84
2023/04/08 01:12:30;;;;;;;;;;;;;;;15.94;31.65;98313.53;5113946;28;19920;-84
2023/04/08 01:15:03;;;;;;;;;;;;;;;15.11;33.42;98314.56;5107239;27;19920;-84
2023/04/08 01:17:30;;;;;;;;;;;;;;;14.93;33.68;98313.44;5099650;28;19966;-84
2023/04/08 01:19:58;;;;;;;;;;;;;;;14.87;33.68;98314.88;5093218;28;19920;-84
2023/04/08 01:22:27;;;;;;;;;;;;;;;15.16;32.82;98314.25;5094406;28;19993;-85
2023/04/08 01:24:58;;;;;;;;;;;;;;;14.83;33.60;98314.84;5106667;28;20015;-84
2023/04/08 01:27:25;;;;;;;;;;;;;;;16.35;30.40;98308.97;5105512;28;19923;-84
2023/04/08 01:29:51;;;;;;;;;;;;;;;16.29;30.63;98308.47;5110148;28;19927;-87
2023/04/08 01:32:18;;;;;;;;;;;;;;;16.58;30.02;98312.44;5082916;28;19924;-84
2023/04/08 01:34:45;;;;;;;;;;;;;;;15.33;32.46;98311.00;5088163;28;20405;-83
2023/04/08 01:37:12;;;;;;;;;;;;;;;15.04;32.92;98318.00;5109024;27;19920;-83
2023/04/08 01:39:39;;;;;;;;;;;;;;;14.33;33.82;98320.53;5097813;28;20417;-83
2023/04/08 01:42:05;;;;;;;;;;;;;;;13.98;34.81;98322.53;5099212;28;19927;-83
2023/04/08 01:44:32;;;;;;;;;;;;;;;13.05;36.87;98327.78;5093203;28;20279;-83
2023/04/08 01:46:58;;;;;;;;;;;;;;;13.30;36.50;98330.38;5093212;28;20367;-83
2023/04/08 01:49:24;;;;;;;;;;;;;;;13.63;35.66;98336.28;5101849;28;20390;-83
2023/04/08 01:51:50;;;;;;;;;;;;;;;13.72;35.31;98334.94;5104439;28;20007;-83
2023/04/08 01:54:16;;;;;;;;;;;;;;;14.14;34.29;98337.84;5099139;28;19928;-83
2023/04/08 01:56:43;;;;;;;;;;;;;;;15.37;32.06;98322.91;5103539;28;19920;-83
2023/04/08 01:59:12;;;;;;;;;;;;;;;16.30;30.24;98326.72;5102960;28;19964;-83
2023/04/08 02:01:39;;;;;;;;;;;;;;;16.80;29.40;98324.56;5083393;28;20324;-84
2023/04/08 02:04:05;;;;;;;;;;;;;;;16.17;30.14;98333.66;5096134;28;19931;-83
2023/04/08 02:06:32;;;;;;;;;;;;;;;15.04;32.17;98326.28;5108065;28;19963;-83
2023/04/08 02:08:58;;;;;;;;;;;;;;;15.14;32.11;98331.22;5100709;28;19966;-83
2023/04/08 02:11:24;;;;;;;;;;;;;;;15.13;32.13;98326.84;5092219;28;20015;-84
2023/04/08 02:13:51;;;;;;;;;;;;;;;15.15;32.05;98327.28;5087776;28;19977;-83
2023/04/08 02:16:29;;;;;;;;;;;;;;;14.46;33.15;98344.09;5099155;28;19931;-83
2023/04/08 02:19:01;;;;;;;;;;;;;;;13.65;34.82;98342.25;5100593;28;19919;-83
2023/04/08 02:21:33;;;;;;;;;;;;;;;13.22;36.23;98342.34;5082724;28;20343;-84
2023/04/08 02:24:01;;;;;;;;;;;;;;;13.57;35.16;98341.28;5081841;28;19970;-83
2023/04/08 02:26:27;;;;;;;;;;;;;;;13.46;35.42;98343.00;5077127;28;19920;-83
2023/04/08 02:28:54;;;;;;;;;;;;;;;13.06;35.94;98345.91;5078313;28;20069;-83
2023/04/08 02:31:21;;;;;;;;;;;;;;;12.89;36.45;98346.22;5079972;28;19924;-83
2023/04/08 02:33:47;;;;;;;;;;;;;;;12.94;36.44;98345.97;5081426;28;19971;-83
2023/04/08 02:36:14;;;;;;;;;;;;;;;13.00;36.41;98341.78;5077594;28;20009;-83
2023/04/08 02:38:40;;;;;;;;;;;;;;;12.49;37.23;98346.28;5084345;28;19920;-83
2023/04/08 02:41:06;;;;;;;;;;;;;;;12.09;38.48;98342.72;5082415;28;19978;-83
2023/04/08 02:43:33;;;;;;;;;;;;;;;12.72;37.16;98343.75;5081309;28;19920;-84
2023/04/08 02:46:02;;;;;;;;;;;;;;;13.66;34.98;98346.59;5087976;28;19926;-85
2023/04/08 02:48:28;;;;;;;;;;;;;;;12.97;36.32;98339.75;5089344;28;19964;-85
2023/04/08 02:50:55;;;;;;;;;;;;;;;14.40;33.83;98335.28;5085008;28;19986;-84
2023/04/08 02:53:21;;;;;;;;;;;;;;;14.89;32.77;98340.22;5082326;28;19970;-84
2023/04/08 02:55:47;;;;;;;;;;;;;;;15.28;32.24;98346.44;5091925;28;19955;-84
2023/04/08 02:58:13;;;;;;;;;;;;;;;15.02;32.13;98347.97;5075508;28;19971;-84
2023/04/08 03:00:39;;;;;;;;;;;;;;;15.03;32.27;98349.56;5078901;28;19916;-83
2023/04/08 03:03:06;;;;;;;;;;;;;;;15.76;31.14;98351.22;5087160;28;19928;-85
2023/04/08 03:05:32;;;;;;;;;;;;;;;15.90;30.56;98357.00;5081849;28;20448;-85
2023/04/08 03:07:58;;;;;;;;;;;;;;;16.66;29.21;98349.38;5085568;28;19920;-85
2023/04/08 03:10:24;;;;;;;;;;;;;;;16.97;28.94;98352.50;5087899;28;20449;-84
2023/04/08 03:12:50;;;;;;;;;;;;;;;17.83;27.60;98360.44;5090996;28;20384;-83
2023/04/08 03:15:16;;;;;;;;;;;;;;;17.81;27.18;98351.69;5079211;28;19920;-85
2023/04/08 03:17:42;;;;;;;;;;;;;;;17.85;27.18;98358.09;5085439;28;20013;-85
2023/04/08 03:20:09;;;;;;;;;;;;;;;18.15;26.86;98360.69;5082853;28;19950;-85
2023/04/08 03:22:35;;;;;;;;;;;;;;;18.00;26.77;98365.34;5083805;28;19931;-85
2023/04/08 03:25:01;;;;;;;;;;;;;;;17.86;27.20;98368.00;5103862;27;19938;-84
2023/04/08 03:27:27;;;;;;;;;;;;;;;17.97;27.08;98368.09;5079635;28;19974;-84
2023/04/08 03:29:53;;;;;;;;;;;;;;;18.18;26.32;98366.25;5097825;28;20431;-84
2023/04/08 03:32:19;;;;;;;;;;;;;;;18.19;26.49;98372.59;5112078;28;19919;-84
2023/04/08 03:34:45;;;;;;;;;;;;;;;18.45;26.23;98375.16;5087052;27;19915;-84
2023/04/08 03:37:11;;;;;;;;;;;;;;;18.31;26.17;98373.09;5103451;28;19973;-84
2023/04/08 03:39:37;;;;;;;;;;;;;;;18.44;25.96;98377.13;5097363;27;19920;-84
2023/04/08 03:42:03;;;;;;;;;;;;;;;18.28;26.22;98379.41;5096507;28;19948;-85
2023/04/08 03:44:30;;;;;;;;;;;;;;;17.85;26.75;98388.66;5106831;27;20363;-84
2023/04/08 03:46:56;;;;;;;;;;;;;;;17.46;27.56;98387.47;5103620;28;19950;-85
2023/04/08 03:49:22;;;;;;;;;;;;;;;17.42;27.49;98386.63;5080910;28;19920;-85
2023/04/08 03:51:48;;;;;;;;;;;;;;;17.67;27.21;98396.00;5105493;27;20432;-85
2023/04/08 03:54:14;;;;;;;;;;;;;;;17.91;26.78;98399.00;5108570;28;19924;-85
2023/04/08 03:56:40;;;;;;;;;;;;;;;18.13;26.86;98396.41;5097483;28;20368;-85
2023/04/08 03:59:06;;;;;;;;;;;;;;;18.54;25.87;98403.44;5110925;28;19959;-85
2023/04/08 04:01:32;;;;;;;;;;;;;;;18.67;25.71;98396.34;5108897;28;20375;-85
2023/04/08 04:03:58;;;;;;;;;;;;;;;18.73;25.59;98403.13;5103476;27;19965;-85
2023/04/08 04:06:25;;;;;;;;;;;;;;;18.58;25.54;98404.22;5106988;28;20400;-85
2023/04/08 04:08:52;;;;;;;;;;;;;;;18.77;25.68;98409.50;5101209;27;19926;-85
2023/04/08 04:11:18;;;;;;;;;;;;;;;18.89;25.16;98411.94;5088406;28;19968;-85
2023/04/08 04:13:44;;;;;;;;;;;;;;;19.16;25.32;98407.66;5099265;27;20018;-83
2023/04/08 04:16:10;;;;;;;;;;;;;;;19.38;24.69;98416.91;5100484;28;19963;-83
2023/04/08 04:18:36;;;;;;;;;;;;;;;19.61;24.22;98410.97;5115102;28;19927;-85
2023/04/08 04:21:08;;;;;;;;;;;;;;;19.74;24.51;98409.41;5112293;28;20307;-84
2023/04/08 04:23:35;;;;;;;;;;;;;;;19.85;23.91;98413.78;5107567;28;19932;-86
2023/04/08 04:26:01;;;;;;;;;;;;;;;19.81;23.86;98410.19;5101527;27;20367;-86
2023/04/08 04:28:26;;;;;;;;;;;;;;;19.70;24.39;98419.72;5080130;28;19927;-86
2023/04/08 04:30:52;;;;;;;;;;;;;;;19.36;24.71;98416.50;5103320;27;19924;-86
2023/04/08 04:33:19;;;;;;;;;;;;;;;19.31;25.28;98422.41;5106746;28;19920;-86
2023/04/08 04:35:45;;;;;;;;;;;;;;;19.27;24.99;98418.84;5107967;28;19927;-86
2023/04/08 04:38:12;;;;;;;;;;;;;;;19.21;25.40;98423.97;5097511;28;19959;-86
2023/04/08 04:40:38;;;;;;;;;;;;;;;19.44;24.99;98429.22;5101706;28;19927;-85
2023/04/08 04:43:04;;;;;;;;;;;;;;;19.58;25.13;98428.50;5099681;27;19919;-86
2023/04/08 04:45:30;;;;;;;;;;;;;;;19.65;24.97;98434.06;5102456;28;19964;-86
2023/04/08 04:47:56;;;;;;;;;;;;;;;19.53;25.19;98435.25;5105236;28;19919;-86
2023/04/08 04:50:22;;;;;;;;;;;;;;;19.43;25.84;98438.81;5107688;28;19980;-86
2023/04/08 04:52:48;;;;;;;;;;;;;;;19.76;25.07;98440.44;5097312;28;20011;-86
2023/04/08 04:55:14;;;;;;;;;;;;;;;19.68;25.13;98448.00;5081618;28;19923;-86
2023/04/08 04:57:41;;;;;;;;;;;;;;;19.40;25.56;98455.47;5101911;28;20398;-86
2023/04/08 05:00:07;;;;;;;;;;;;;;;19.06;26.19;98455.75;5092009;28;19924;-86
2023/04/08 05:02:33;;;;;;;;;;;;;;;19.21;25.98;98456.59;5120951;27;20399;-86
2023/04/08 05:04:59;;;;;;;;;;;;;;;19.52;26.29;98455.13;5099231;28;19969;-86
2023/04/08 05:07:25;;;;;;;;;;;;;;;19.82;25.90;98456.38;5114096;28;19920;-86
2023/04/08 05:09:52;;;;;;;;;;;;;;;19.82;25.85;98455.56;5109337;28;19919;-86
2023/04/08 05:12:21;;;;;;;;;;;;;;;19.86;25.54;98461.97;5091842;28;20018;-86
2023/04/08 05:14:47;;;;;;;;;;;;;;;19.90;25.93;98462.75;5107193;28;19920;-86
2023/04/08 05:17:13;;;;;;;;;;;;;;;19.62;26.44;98465.50;5108695;27;20268;-86
2023/04/08 05:19:39;;;;;;;;;;;;;;;19.68;26.38;98466.69;5096138;28;19931;-85
2023/04/08 05:22:05;;;;;;;;;;;;;;;19.01;26.91;98478.38;5098227;28;19931;-87
2023/04/08 05:24:31;;;;;;;;;;;;;;;18.92;27.27;98480.72;5095595;28;19920;-85
2023/04/08 05:26:57;;;;;;;;;;;;;;;19.04;27.18;98471.25;5106597;28;19927;-85
2023/04/08 05:29:23;;;;;;;;;;;;;;;19.07;26.76;98473.22;5100489;28;19935;-85
2023/04/08 05:31:49;;;;;;;;;;;;;;;19.10;27.08;98478.81;5100053;28;19943;-85
2023/04/08 05:34:21;;;;;;;;;;;;;;;18.62;27.74;98477.38;5097621;27;19920;-85
2023/04/08 05:36:50;;;;;;;;;;;;;;;18.56;28.74;98490.84;5095731;28;20399;-85
2023/04/08 05:39:19;;;;;;;;;;;;;;;19.02;27.31;98491.09;5081348;28;19935;-84
2023/04/08 05:41:46;;;;;;;;;;;;;;;19.10;27.14;98491.94;5104800;28;19927;-85
2023/04/08 05:44:12;;;;;;;;;;;;;;;18.71;26.74;98490.94;5094527;28;20395;-85
2023/04/08 05:46:39;;;;;;;;;;;;;;;18.15;28.43;98494.88;5094664;28;19928;-85
2023/04/08 05:49:05;;;;;;;;;;;;;;;18.47;28.16;98495.13;5091569;28;20005;-84
2023/04/08 05:51:33;;;;;;;;;;;;;;;18.37;28.57;98516.06;5095079;28;20018;-85
2023/04/08 05:53:59;;;;;;;;;;;;;;;19.09;27.52;98507.06;5091688;28;19934;-85
2023/04/08 05:56:25;;;;;;;;;;;;;;;19.45;28.04;98511.59;5093612;28;19923;-85
2023/04/08 05:58:51;;;;;;;;;;;;;;;19.82;27.28;98503.75;5091499;28;19928;-85
2023/04/08 06:01:18;;;;;;;;;;;;;;;19.76;27.44;98510.91;5094071;28;20409;-85
2023/04/08 06:03:44;;;;;;;;;;;;;;;19.86;27.70;98507.31;5107055;28;19920;-84
2023/04/08 06:06:10;;;;;;;;;;;;;;;19.79;27.37;98515.66;5101168;28;20259;-84
2023/04/08 06:08:36;;;;;;;;;;;;;;;19.72;27.60;98521.22;5091092;28;19935;-84
2023/04/08 06:11:05;;;;;;;;;;;;;;;19.67;28.42;98515.25;5089059;28;20315;-82
2023/04/08 06:13:31;;;;;;;;;;;;;;;19.62;27.18;98513.66;5101289;28;20379;-85
2023/04/08 06:15:58;;;;;;;;;;;;;;;19.61;27.69;98528.75;5102925;27;19922;-85
2023/04/08 06:18:24;;;;;;;;;;;;;;;19.52;28.46;98533.09;5080078;28;20290;-85
2023/04/08 06:20:50;;;;;;;;;;;;;;;19.88;28.30;98541.16;5102412;27;19916;-85
2023/04/08 06:23:16;;;;;;;;;;;;;;;19.91;27.37;98537.59;5106338;28;19980;-85
2023/04/08 06:25:42;;;;;;;;;;;;;;;20.02;27.38;98542.41;5097163;28;20420;-85
2023/04/08 06:28:08;;;;;;;;;;;;;;;19.77;27.79;98542.31;5099488;28;19924;-86
2023/04/08 06:30:34;;;;;;;;;;;;;;;19.73;27.30;98547.09;5101337;27;19924;-87
2023/04/08 06:33:00;;;;;;;;;;;;;;;19.97;28.21;98557.53;5103779;28;19920;-86
2023/04/08 06:35:26;;;;;;;;;;;;;;;19.76;27.23;98557.47;5110030;27;19927;-85
2023/04/08 06:37:52;;;;;;;;;;;;;;;19.71;28.29;98557.84;5113408;27;19919;-86
2023/04/08 06:40:18;;;;;;;;;;;;;;;19.93;28.18;98556.69;5102175;27;19928;-86
2023/04/08 06:42:44;;;;;;;;;;;;;;;20.45;26.73;98556.00;5098184;27;19920;-86
2023/04/08 06:45:10;;;;;;;;;;;;;;;20.42;27.54;98558.81;5081718;28;19931;-88
2023/04/08 06:47:36;;;;;;;;;;;;;;;20.64;26.96;98558.41;5101468;27;19920;-85
2023/04/08 06:50:02;;;;;;;;;;;;;;;21.06;26.95;98557.56;5105066;27;19920;-83
2023/04/08 06:52:28;;;;;;;;;;;;;;;21.12;26.57;98555.97;5097178;28;19924;-85
2023/04/08 06:54:54;;;;;;;;;;;;;;;20.83;27.14;98557.19;5096622;28;19942;-84
2023/04/08 06:57:20;;;;;;;;;;;;;;;21.12;26.21;98549.59;5098972;27;19928;-84
2023/04/08 06:59:46;;;;;;;;;;;;;;;20.18;26.98;98548.41;5101310;27;19920;-83
2023/04/08 07:02:12;;;;;;;;;;;;;;;18.38;31.52;98551.03;5092637;28;20307;-83
2023/04/08 07:04:38;;;;;;;;;;;;;;;19.43;29.68;98558.53;5101734;28;19927;-84
2023/04/08 07:07:04;;;;;;;;;;;;;;;20.41;28.34;98558.00;5087576;27;19934;-84
2023/04/08 07:09:31;;;;;;;;;;;;;;;19.17;32.29;98569.91;5100392;27;19946;-85
2023/04/08 07:11:58;;;;;;;;;;;;;;;19.01;30.32;98561.06;5088922;28;19916;-86
2023/04/08 07:14:24;;;;;;;;;;;;;;;20.00;29.42;98560.31;5101706;27;19963;-88
2023/04/08 07:16:50;;;;;;;;;;;;;;;20.90;28.61;98562.75;5099015;27;20379;-86
2023/04/08 07:19:17;;;;;;;;;;;;;;;21.45;26.50;98565.06;5096500;27;19931;-87
2023/04/08 07:21:43;;;;;;;;;;;;;;;19.69;29.69;98560.22;5107403;27;20015;-87
2023/04/08 07:24:09;;;;;;;;;;;;;;;16.96;34.63;98558.91;5098174;27;19924;-86
2023/04/08 07:26:35;;;;;;;;;;;;;;;17.33;35.03;98561.78;5103958;27;19924;-88
2023/04/08 07:29:01;;;;;;;;;;;;;;;16.21;36.58;98560.84;5109868;28;19927;-85
2023/04/08 07:31:27;;;;;;;;;;;;;;;16.37;37.15;98570.63;5096895;27;19916;-86
2023/04/08 07:33:53;;;;;;;;;;;;;;;17.66;32.57;98564.63;5101216;27;20394;-86
2023/04/08 07:36:19;;;;;;;;;;;;;;;17.52;32.60;98575.56;5100936;27;19915;-85
2023/04/08 07:38:46;;;;;;;;;;;;;;;17.35;33.73;98586.38;5102740;28;19919;-86
2023/04/08 07:41:12;;;;;;;;;;;;;;;17.20;35.70;98577.06;5101991;27;20383;-84
2023/04/08 07:43:38;;;;;;;;;;;;;;;18.86;29.89;98578.84;5084987;28;20403;-84
2023/04/08 07:46:04;;;;;;;;;;;;;;;19.49;31.75;98582.03;5098322;28;20027;-88
2023/04/08 07:48:31;;;;;;;;;;;;;;;17.56;35.62;98587.50;5088827;27;19932;-87
2023/04/08 07:50:57;;;;;;;;;;;;;;;16.24;37.49;98579.50;5092768;27;20006;-89
2023/04/08 07:53:25;;;;;;;;;;;;;;;13.77;42.77;98587.72;5090796;27;19939;-85
2023/04/08 07:55:51;;;;;;;;;;;;;;;14.51;39.74;98596.03;5090263;27;20276;-84
2023/04/08 07:58:17;;;;;;;;;;;;;;;16.43;36.09;98584.97;5101898;27;19941;-84
2023/04/08 08:00:43;;;;;;;;;;;;;;;17.77;32.54;98590.53;5098152;27;20058;-87
2023/04/08 08:03:09;;;;;;;;;;;;;;;17.58;32.17;98589.88;5101955;28;19920;-87
2023/04/08 08:05:36;;;;;;;;;;;;;;;19.49;30.54;98587.59;5113434;27;19956;-87
2023/04/08 08:08:02;;;;;;;;;;;;;;;20.53;29.40;98590.28;5106504;28;19920;-86
2023/04/08 08:10:28;;;;;;;;;;;;;;;20.88;28.23;98583.91;5093431;27;20046;-85
2023/04/08 08:12:55;;;;;;;;;;;;;;;18.92;31.43;98594.00;5109031;28;21172;-85
2023/04/08 08:15:21;;;;;;;;;;;;;;;18.75;32.35;98598.25;5098038;27;19980;-85
2023/04/08 08:17:47;;;;;;;;;;;;;;;16.92;39.40;98605.19;5097985;27;19924;-86
2023/04/08 08:20:13;;;;;;;;;;;;;;;18.66;32.81;98594.19;5108581;27;19986;-85
2023/04/08 08:22:39;;;;;;;;;;;;;;;19.70;32.84;98598.03;5100154;28;20375;-82
2023/04/08 08:25:06;;;;;;;;;;;;;;;21.33;27.71;98583.06;5097082;27;20422;-84
2023/04/08 08:27:33;;;;;;;;;;;;;;;22.45;26.67;98581.69;5096518;27;19942;-86
2023/04/08 08:29:59;;;;;;;;;;;;;;;20.20;29.64;98591.41;5101158;27;19924;-87
2023/04/08 08:32:25;;;;;;;;;;;;;;;19.96;30.57;98604.09;5096795;27;20015;-87
2023/04/08 08:34:51;;;;;;;;;;;;;;;21.15;28.01;98590.66;5096691;27;20383;-85
2023/04/08 08:37:17;;;;;;;;;;;;;;;20.83;27.71;98598.25;5105728;27;19920;-84
2023/04/08 08:39:43;;;;;;;;;;;;;;;18.83;34.53;98608.25;5094315;28;19984;-84
2023/04/08 08:42:22;;;;;;;;;;;;;;;19.12;35.35;98612.00;5101437;28;19926;-84
2023/04/08 08:44:48;;;;;;;;;;;;;;;18.78;32.48;98605.03;5094421;28;20031;-83
2023/04/08 08:47:15;;;;;;;;;;;;;;;18.63;36.83;98604.09;5116520;27;19974;-84
2023/04/08 08:49:41;;;;;;;;;;;;;;;18.05;40.39;98615.03;5121925;27;20390;-84
2023/04/08 08:52:08;;;;;;;;;;;;;;;20.36;31.95;98602.22;5108203;28;19978;-84
2023/04/08 08:54:34;;;;;;;;;;;;;;;22.00;28.61;98591.97;5106955;27;19965;-85
2023/04/08 08:57:00;;;;;;;;;;;;;;;20.02;36.29;98613.66;5099442;28;19964;-84
2023/04/08 08:59:26;;;;;;;;;;;;;;;18.55;37.52;98608.78;5105536;27;19927;-86
2023/04/08 09:01:52;;;;;;;;;;;;;;;18.28;37.10;98612.09;5105823;28;19920;-85
2023/04/08 09:04:19;;;;;;;;;;;;;;;17.37;39.52;98618.13;5110327;27;19949;-85
2023/04/08 09:06:47;;;;;;;;;;;;;;;16.87;37.93;98611.09;5108642;28;19934;-86
2023/04/08 09:09:13;;;;;;;;;;;;;;;17.64;34.85;98616.16;5105374;27;19928;-86
2023/04/08 09:11:43;;;;;;;;;;;;;;;17.18;40.26;98621.03;5096640;28;19920;-90
2023/04/08 09:14:19;;;;;;;;;;;;;;;17.21;36.87;98621.09;5100341;28;20664;-84
2023/04/08 09:16:45;;;;;;;;;;;;;;;16.34;37.94;98634.28;5078392;28;20378;-84
2023/04/08 09:19:12;;;;;;;;;;;;;;;16.05;42.47;98623.88;5106782;28;20280;-84
2023/04/08 09:21:40;;;;;;;;;;;;;;;17.58;35.75;98628.75;5104497;28;19995;-85
2023/04/08 09:24:06;;;;;;;;;;;;;;;18.02;34.90;98621.34;5094428;28;19931;-87
2023/04/08 09:26:33;;;;;;;;;;;;;;;16.63;39.35;98628.13;5104400;28;19919;-87
2023/04/08 09:29:08;;;;;;;;;;;;;;;17.10;39.61;98633.22;5103415;28;19926;-85
2023/04/08 09:31:37;;;;;;;;;;;;;;;19.38;32.41;98622.94;5105264;28;19930;-86
2023/04/08 09:34:15;;;;;;;;;;;;;;;20.93;32.43;98619.78;5100588;28;19959;-84
2023/04/08 09:36:41;;;;;;;;;;;;;;;19.32;32.43;98641.97;5102314;28;19916;-85
2023/04/08 09:39:07;;;;;;;;;;;;;;;18.51;38.38;98632.19;5086726;28;19924;-85
2023/04/08 09:41:34;;;;;;;;;;;;;;;17.40;40.59;98639.59;5104817;28;20341;-86
2023/04/08 09:44:02;;;;;;;;;;;;;;;16.81;43.05;98642.25;5111558;28;20349;-87
2023/04/08 09:46:32;;;;;;;;;;;;;;;17.50;38.51;98638.16;5099895;28;19920;-87
2023/04/08 09:49:11;;;;;;;;;;;;;;;16.41;42.56;98638.00;5110689;28;19920;-85
2023/04/08 09:51:47;;;;;;;;;;;;;;;17.88;36.67;98637.84;5104520;28;19927;-84
2023/04/08 09:54:14;;;;;;;;;;;;;;;18.62;35.39;98639.44;5108803;28;19927;-84
2023/04/08 09:56:43;;;;;;;;;;;;;;;18.22;38.53;98633.06;5108207;28;19949;-85
2023/04/08 09:59:16;;;;;;;;;;;;;;;18.47;37.54;98634.94;5101791;28;19924;-84
2023/04/08 10:01:44;;;;;;;;;;;;;;;18.01;41.06;98643.97;5096354;28;19924;-85
2023/04/08 10:04:16;;;;;;;;;;;;;;;18.23;38.83;98637.44;5099248;28;19999;-86
2023/04/08 10:06:42;;;;;;;;;;;;;;;18.11;41.05;98638.50;5088587;28;23266;-86
2023/04/08 10:09:09;;;;;;;;;;;;;;;18.06;40.15;98641.66;5098290;28;20538;-85
2023/04/08 10:11:35;;;;;;;;;;;;;;;16.82;39.99;98643.88;5103594;28;19967;-84
2023/04/08 10:14:01;;;;;;;;;;;;;;;17.12;43.92;98641.97;5082372;28;19934;-84
2023/04/08 10:16:28;;;;;;;;;;;;;;;16.61;44.35;98646.28;5100063;28;20415;-87
2023/04/08 10:18:55;;;;;;;;;;;;;;;16.94;44.20;98633.34;5101918;28;19926;-86
2023/04/08 10:21:38;;;;;;;;;;;;;;;18.13;36.85;98638.94;5101801;28;19920;-86
2023/04/08 10:24:08;;;;;;;;;;;;;;;19.11;39.34;98632.69;5093955;28;19970;-86
2023/04/08 10:26:34;;;;;;;;;;;;;;;18.78;39.35;98628.06;5095482;28;19920;-87
2023/04/08 10:29:16;;;;;;;;;;;;;;;18.13;40.89;98638.94;5099862;28;19963;-88
2023/04/08 10:31:42;;;;;;;;;;;;;;;18.20;43.06;98644.59;5099100;28;20371;-88
2023/04/08 10:34:17;;;;;;;;;;;;;;;17.39;43.54;98648.28;5101315;28;19920;-86
2023/04/08 10:36:44;;;;;;;;;;;;;;;17.66;42.22;98638.78;5101540;28;20392;-90
2023/04/08 10:39:11;;;;;;;;;;;;;;;17.52;44.86;98646.91;5110823;28;19923;-87
2023/04/08 10:41:43;;;;;;;;;;;;;;;16.45;45.43;98651.94;5111315;28;19920;-89
2023/04/08 10:44:19;;;;;;;;;;;;;;;16.24;47.45;98643.22;5105506;28;19920;-90
2023/04/08 10:46:46;;;;;;;;;;;;;;;15.48;46.00;98667.00;5109723;28;20299;-89
2023/04/08 10:49:12;;;;;;;;;;;;;;;15.11;48.65;98683.13;5110691;28;19923;-90
2023/04/08 10:51:39;;;;;;;;;;;;;;;16.41;42.54;98662.94;5106616;28;19915;-91
2023/04/08 10:54:06;;;;;;;;;;;;;;;16.46;42.23;98670.94;5103883;28;19928;-90
2023/04/08 10:56:33;;;;;;;;;;;;;;;16.44;43.43;98666.94;5087964;28;19924;-89
2023/04/08 10:58:59;;;;;;;;;;;;;;;16.76;42.82;98670.28;5099857;28;20022;-88
2023/04/08 11:01:26;;;;;;;;;;;;;;;16.04;42.50;98667.38;5106443;28;19928;-87
2023/04/08 11:03:52;;;;;;;;;;;;;;;15.12;45.22;98679.19;5105620;27;20010;-89
2023/04/08 11:06:18;;;;;;;;;;;;;;;14.95;46.33;98682.38;5099216;27;20053;-93
2023/04/08 11:08:44;;;;;;;;;;;;;;;15.00;45.11;98673.81;5101777;28;19927;-88
2023/04/08 11:11:10;;;;;;;;;;;;;;;15.50;42.07;98669.41;5106725;27;22391;-89
2023/04/08 11:13:38;;;;;;;;;;;;;;;16.78;38.68;98668.75;5098950;27;19920;-88
2023/04/08 11:16:05;;;;;;;;;;;;;;;15.46;44.19;98663.81;5107350;28;19920;-87
2023/04/08 11:18:33;;;;;;;;;;;;;;;15.53;46.16;98663.16;5096936;27;19927;-86
2023/04/08 11:21:00;;;;;;;;;;;;;;;15.67;45.42;98669.78;5099695;28;20011;-88
2023/04/08 11:23:26;;;;;;;;;;;;;;;16.09;44.62;98672.63;5095036;27;19924;-87
2023/04/08 11:25:53;;;;;;;;;;;;;;;16.33;44.39;98666.75;5106945;27;19952;-87
2023/04/08 11:28:19;;;;;;;;;;;;;;;17.75;37.84;98661.50;5103599;28;20026;-87
2023/04/08 11:30:47;;;;;;;;;;;;;;;17.57;41.97;98657.69;5090020;28;20362;-87
2023/04/08 11:33:13;;;;;;;;;;;;;;;17.73;41.46;98661.09;5106052;28;20002;-88
2023/04/08 11:35:40;;;;;;;;;;;;;;;16.39;43.73;98656.16;5100248;28;19923;-90
2023/04/08 11:38:07;;;;;;;;;;;;;;;16.36;44.20;98654.16;5097573;27;19958;-90
2023/04/08 11:40:33;;;;;;;;;;;;;;;17.20;42.34;98658.34;5101895;28;19928;-95
2023/04/08 11:43:07;;;;;;;;;;;;;;;16.58;41.27;98665.25;5101415;27;19991;-88
2023/04/08 11:45:37;;;;;;;;;;;;;;;16.02;45.94;98658.63;5081788;28;19927;-90
2023/04/08 11:48:13;;;;;;;;;;;;;;;17.20;42.34;98663.88;5099272;27;20018;-87
2023/04/08 11:50:39;;;;;;;;;;;;;;;17.48;42.52;98654.38;5101475;27;19938;-91
2023/04/08 11:53:23;;;;;;;;;;;;;;;16.90;42.98;98651.91;5098439;28;20353;-90
2023/04/08 11:55:50;;;;;;;;;;;;;;;16.28;39.47;98661.53;5091825;28;19923;-90
2023/04/08 11:58:16;;;;;;;;;;;;;;;15.68;45.91;98660.31;5092788;27;20121;-92
2023/04/08 12:00:42;;;;;;;;;;;;;;;15.47;43.81;98664.63;5101477;28;20024;-90
2023/04/08 12:03:09;;;;;;;;;;;;;;;14.03;47.13;98665.31;5102629;27;20011;-88
2023/04/08 12:05:35;;;;;;;;;;;;;;;14.19;50.15;98657.88;5104975;27;19928;-86
2023/04/08 12:08:02;;;;;;;;;;;;;;;14.72;48.53;98659.28;5103080;27;19924;-87
2023/04/08 12:10:28;;;;;;;;;;;;;;;15.21;46.62;98660.47;5089186;28;19928;-86
2023/04/08 12:12:54;;;;;;;;;;;;;;;15.62;42.88;98661.78;5103394;28;19923;-90
2023/04/08 12:15:20;;;;;;;;;;;;;;;16.73;43.27;98655.22;5094169;28;19938;-88
2023/04/08 12:17:46;;;;;;;;;;;;;;;16.54;42.53;98653.31;5095005;28;19980;-89
2023/04/08 12:20:12;;;;;;;;;;;;;;;17.90;40.75;98647.41;5091925;27;19920;-85
2023/04/08 12:22:38;;;;;;;;;;;;;;;17.98;39.39;98651.06;5108876;27;19977;-86
2023/04/08 12:25:05;;;;;;;;;;;;;;;17.30;40.28;98648.56;5099719;27;19935;-87
2023/04/08 12:27:34;;;;;;;;;;;;;;;16.81;41.08;98658.88;5097291;28;19935;-87
2023/04/08 12:30:01;;;;;;;;;;;;;;;16.02;43.59;98658.63;5106533;28;19926;-88
2023/04/08 12:32:27;;;;;;;;;;;;;;;15.55;43.22;98667.16;5081038;28;19924;-89
2023/04/08 12:34:53;;;;;;;;;;;;;;;17.26;37.24;98665.19;5079560;28;19931;-88
2023/04/08 12:37:19;;;;;;;;;;;;;;;17.78;36.32;98661.53;5091772;28;19931;-89
2023/04/08 12:39:46;;;;;;;;;;;;;;;18.17;33.93;98656.47;5098362;27;19923;-88
2023/04/08 12:42:13;;;;;;;;;;;;;;;16.88;41.13;98661.78;5097119;28;19927;-88
2023/04/08 12:44:39;;;;;;;;;;;;;;;16.87;40.92;98660.19;5088979;28;20058;-86
2023/04/08 12:47:05;;;;;;;;;;;;;;;18.45;34.42;98665.13;5092991;27;19932;-88